createdAt,value
2017-01-24T00:00:33.503Z,19.83
2017-01-24T00:01:33.865Z,19.45
2017-01-24T00:02:33.931Z,19.83
2017-01-24T00:03:33.347Z,19.54
2017-01-24T00:04:33.497Z,19.35
2017-01-24T00:05:33.918Z,19.83
2017-01-24T00:06:33.474Z,19.83
2017-01-24T00:07:33.879Z,19.73
2017-01-24T00:08:33.544Z,19.73
2017-01-24T00:09:33.483Z,19.73
2017-01-24T00:10:33.944Z,19.25
2017-01-24T00:11:34.454Z,19.64
2017-01-24T00:12:33.893Z,19.64
2017-01-24T00:13:33.882Z,19.64
2017-01-24T00:14:33.553Z,19.63
2017-01-24T00:15:33.862Z,19.73
2017-01-24T00:16:34.544Z,20.02
2017-01-24T00:17:33.826Z,19.35
2017-01-24T00:18:33.885Z,19.64
2017-01-24T00:19:33.929Z,19.64
2017-01-24T00:20:33.957Z,19.25
2017-01-24T00:21:33.525Z,19.63
2017-01-24T00:22:33.555Z,19.64
2017-01-24T00:23:33.568Z,19.54
2017-01-24T00:24:33.606Z,19.64
2017-01-24T00:25:33.957Z,19.54
2017-01-24T00:26:33.554Z,19.64
2017-01-24T00:27:33.524Z,19.64
2017-01-24T00:28:33.970Z,19.63
2017-01-24T00:29:33.544Z,19.73
2017-01-24T00:30:33.576Z,19.54
2017-01-24T00:31:33.593Z,19.73
2017-01-24T00:32:33.912Z,19.73
2017-01-24T00:33:34.006Z,19.73
2017-01-24T00:34:33.602Z,19.73
2017-01-24T00:35:33.609Z,19.73
2017-01-24T00:36:34.036Z,19.64
2017-01-24T00:37:33.988Z,19.72
2017-01-24T00:38:34.117Z,19.64
2017-01-24T00:39:33.636Z,19.73
2017-01-24T00:40:33.666Z,19.72
2017-01-24T00:41:33.622Z,19.34
2017-01-24T00:42:33.596Z,20.2
2017-01-24T00:43:34.510Z,19.73
2017-01-24T00:44:33.636Z,20.11
2017-01-24T00:45:34.038Z,19.35
2017-01-24T00:46:34.033Z,20.2
2017-01-24T00:47:33.980Z,20.01
2017-01-24T00:48:34.793Z,19.34
2017-01-24T00:49:34.071Z,19.82
2017-01-24T00:50:33.639Z,19.63
2017-01-24T00:51:34.048Z,20.01
2017-01-24T00:52:34.077Z,20.11
2017-01-24T00:53:34.368Z,19.35
2017-01-24T00:54:34.167Z,20.3
2017-01-24T00:55:33.651Z,19.92
2017-01-24T00:56:33.670Z,19.24
2017-01-24T00:57:33.710Z,20.02
2017-01-24T00:58:33.611Z,19.34
2017-01-24T00:59:33.654Z,19.34
2017-01-24T01:00:34.176Z,19.72
2017-01-24T01:01:34.077Z,19.34
2017-01-24T01:02:33.729Z,19.72
2017-01-24T01:03:33.728Z,19.72
2017-01-24T01:04:33.692Z,19.43
2017-01-24T01:05:34.120Z,19.63
2017-01-24T01:06:34.156Z,19.72
2017-01-24T01:07:34.187Z,19.63
2017-01-24T01:08:33.722Z,19.63
2017-01-24T01:09:34.148Z,19.63
2017-01-24T01:10:34.258Z,19.64
2017-01-24T01:11:34.183Z,19.72
2017-01-24T01:12:33.734Z,19.73
2017-01-24T01:13:34.354Z,19.64
2017-01-24T01:14:34.355Z,19.63
2017-01-24T01:15:33.745Z,19.63
2017-01-24T01:16:34.840Z,19.72
2017-01-24T01:17:33.848Z,19.72
2017-01-24T01:18:33.840Z,19.72
2017-01-24T01:19:33.800Z,19.72
2017-01-24T01:20:33.787Z,19.92
2017-01-24T01:21:34.245Z,19.63
2017-01-24T01:22:34.220Z,19.63
2017-01-24T01:23:33.735Z,19.72
2017-01-24T01:24:34.258Z,19.63
2017-01-24T01:25:34.370Z,19.63
2017-01-24T01:26:33.799Z,19.63
2017-01-24T01:27:34.153Z,19.72
2017-01-24T01:28:33.823Z,19.72
2017-01-24T01:29:34.246Z,19.72
2017-01-24T01:30:34.180Z,19.72
2017-01-24T01:31:34.861Z,19.64
2017-01-24T01:32:34.391Z,19.83
2017-01-24T01:33:34.321Z,19.53
2017-01-24T01:34:34.238Z,19.64
2017-01-24T01:35:34.264Z,19.63
2017-01-24T01:36:33.832Z,19.72
2017-01-24T01:37:34.336Z,19.72
2017-01-24T01:38:34.228Z,19.73
2017-01-24T01:39:34.921Z,19.72
2017-01-24T01:40:34.370Z,19.73
2017-01-24T01:41:34.330Z,19.53
2017-01-24T01:42:34.355Z,19.53
2017-01-24T01:43:34.300Z,19.64
2017-01-24T01:44:33.962Z,19.43
2017-01-24T01:45:33.865Z,19.64
2017-01-24T01:46:34.389Z,19.73
2017-01-24T01:47:35.089Z,19.63
2017-01-24T01:48:33.965Z,19.53
2017-01-24T01:49:34.410Z,19.43
2017-01-24T01:50:34.443Z,19.72
2017-01-24T01:51:33.954Z,19.73
2017-01-24T01:52:33.944Z,19.53
2017-01-24T01:53:34.423Z,19.72
2017-01-24T01:54:33.951Z,19.82
2017-01-24T01:55:34.498Z,19.43
2017-01-24T01:56:34.429Z,19.83
2017-01-24T01:57:34.362Z,19.83
2017-01-24T01:58:33.991Z,19.83
2017-01-24T01:59:34.533Z,19.72
2017-01-24T02:00:34.074Z,19.73
2017-01-24T02:01:33.922Z,19.72
2017-01-24T02:02:34.022Z,19.63
2017-01-24T02:03:34.879Z,19.72
2017-01-24T02:04:34.098Z,19.72
2017-01-24T02:05:34.475Z,19.83
2017-01-24T02:06:34.471Z,19.24
2017-01-24T02:07:34.029Z,19.72
2017-01-24T02:08:34.029Z,19.72
2017-01-24T02:09:34.078Z,19.72
2017-01-24T02:10:34.420Z,19.72
2017-01-24T02:11:34.058Z,19.72
2017-01-24T02:12:34.502Z,19.63
2017-01-24T02:13:34.147Z,19.53
2017-01-24T02:14:34.489Z,19.53
2017-01-24T02:15:34.508Z,19.63
2017-01-24T02:16:34.525Z,19.63
2017-01-24T02:17:34.395Z,19.72
2017-01-24T02:18:34.120Z,19.72
2017-01-24T02:19:34.923Z,19.72
2017-01-24T02:20:34.529Z,19.63
2017-01-24T02:21:34.170Z,20.11
2017-01-24T02:22:34.523Z,20.3
2017-01-24T02:23:34.143Z,19.34
2017-01-24T02:24:34.131Z,19.63
2017-01-24T02:25:34.481Z,19.82
2017-01-24T02:26:34.614Z,19.34
2017-01-24T02:27:34.577Z,19.63
2017-01-24T02:28:34.534Z,20.11
2017-01-24T02:29:34.645Z,19.63
2017-01-24T02:30:34.610Z,19.82
2017-01-24T02:31:34.133Z,19.63
2017-01-24T02:32:34.657Z,19.34
2017-01-24T02:33:34.608Z,19.72
2017-01-24T02:34:34.147Z,19.34
2017-01-24T02:35:34.553Z,20.2
2017-01-24T02:36:34.649Z,20.01
2017-01-24T02:37:34.503Z,19.72
2017-01-24T02:38:34.265Z,19.63
2017-01-24T02:39:34.498Z,19.63
2017-01-24T02:40:34.163Z,19.24
2017-01-24T02:41:34.593Z,19.34
2017-01-24T02:42:34.668Z,19.72
2017-01-24T02:43:34.597Z,19.63
2017-01-24T02:44:34.687Z,19.24
2017-01-24T02:45:34.672Z,19.63
2017-01-24T02:46:34.719Z,19.63
2017-01-24T02:47:34.616Z,19.82
2017-01-24T02:48:34.696Z,19.72
2017-01-24T02:49:34.714Z,19.63
2017-01-24T02:50:34.641Z,19.63
2017-01-24T02:51:34.247Z,19.82
2017-01-24T02:52:34.763Z,19.63
2017-01-24T02:53:34.614Z,19.82
2017-01-24T02:54:34.666Z,19.63
2017-01-24T02:55:34.725Z,19.72
2017-01-24T02:56:34.766Z,19.72
2017-01-24T02:57:34.671Z,19.72
2017-01-24T02:58:34.616Z,19.53
2017-01-24T02:59:34.644Z,19.72
2017-01-24T03:00:34.881Z,19.72
2017-01-24T03:01:34.357Z,19.43
2017-01-24T03:02:34.363Z,19.83
2017-01-24T03:03:34.245Z,19.63
2017-01-24T03:04:34.376Z,19.72
2017-01-24T03:05:34.326Z,19.72
2017-01-24T03:06:34.332Z,19.72
2017-01-24T03:07:34.820Z,19.63
2017-01-24T03:08:34.736Z,19.82
2017-01-24T03:09:34.399Z,19.72
2017-01-24T03:10:34.672Z,19.82
2017-01-24T03:11:34.771Z,19.82
2017-01-24T03:12:34.797Z,19.72
2017-01-24T03:13:34.755Z,19.72
2017-01-24T03:14:34.872Z,19.72
2017-01-24T03:15:34.415Z,19.72
2017-01-24T03:16:34.408Z,19.72
2017-01-24T03:17:34.387Z,19.43
2017-01-24T03:18:34.419Z,19.72
2017-01-24T03:19:34.537Z,19.72
2017-01-24T03:20:34.443Z,19.72
2017-01-24T03:21:34.705Z,19.63
2017-01-24T03:22:34.708Z,19.82
2017-01-24T03:23:34.777Z,19.63
2017-01-24T03:24:34.715Z,19.72
2017-01-24T03:25:34.377Z,19.72
2017-01-24T03:26:34.389Z,19.63
2017-01-24T03:27:35.560Z,19.63
2017-01-24T03:28:34.755Z,19.72
2017-01-24T03:29:34.752Z,19.72
2017-01-24T03:30:34.867Z,19.53
2017-01-24T03:31:34.946Z,19.53
2017-01-24T03:32:34.874Z,19.63
2017-01-24T03:33:34.847Z,19.72
2017-01-24T03:34:35.559Z,19.72
2017-01-24T03:35:34.851Z,19.63
2017-01-24T03:36:34.813Z,19.63
2017-01-24T03:37:34.951Z,19.72
2017-01-24T03:38:34.488Z,19.72
2017-01-24T03:39:34.977Z,19.63
2017-01-24T03:40:34.505Z,19.63
2017-01-24T03:41:34.942Z,19.72
2017-01-24T03:42:34.906Z,19.43
2017-01-24T03:43:34.421Z,19.63
2017-01-24T03:44:34.966Z,19.63
2017-01-24T03:45:34.870Z,19.63
2017-01-24T03:46:35.035Z,19.53
2017-01-24T03:47:35.023Z,19.72
2017-01-24T03:48:35.019Z,19.63
2017-01-24T03:49:34.967Z,19.92
2017-01-24T03:50:34.912Z,19.72
2017-01-24T03:51:34.577Z,19.34
2017-01-24T03:52:35.072Z,20.2
2017-01-24T03:53:34.693Z,20.11
2017-01-24T03:54:34.556Z,20.2
2017-01-24T03:55:34.993Z,20.11
2017-01-24T03:56:34.530Z,20.11
2017-01-24T03:57:34.931Z,20.11
2017-01-24T03:58:34.924Z,19.43
2017-01-24T03:59:34.990Z,19.63
2017-01-24T04:00:34.603Z,19.53
2017-01-24T04:01:35.017Z,20.01
2017-01-24T04:02:34.957Z,20.01
2017-01-24T04:03:34.976Z,20.3
2017-01-24T04:04:34.915Z,19.34
2017-01-24T04:05:35.143Z,19.34
2017-01-24T04:06:35.031Z,20.11
2017-01-24T04:07:34.666Z,19.53
2017-01-24T04:08:35.059Z,20.11
2017-01-24T04:09:34.982Z,19.34
2017-01-24T04:10:34.549Z,19.82
2017-01-24T04:11:35.108Z,19.72
2017-01-24T04:12:34.623Z,19.72
2017-01-24T04:13:34.638Z,19.63
2017-01-24T04:14:34.999Z,19.63
2017-01-24T04:15:34.970Z,19.63
2017-01-24T04:16:34.575Z,19.72
2017-01-24T04:17:35.000Z,19.72
2017-01-24T04:18:34.675Z,19.72
2017-01-24T04:19:34.639Z,19.72
2017-01-24T04:20:35.393Z,19.63
2017-01-24T04:21:34.732Z,19.72
2017-01-24T04:22:34.604Z,19.72
2017-01-24T04:23:35.054Z,19.63
2017-01-24T04:24:35.150Z,19.34
2017-01-24T04:25:35.072Z,19.72
2017-01-24T04:26:34.623Z,20.11
2017-01-24T04:27:34.790Z,20.01
2017-01-24T04:28:35.149Z,19.34
2017-01-24T04:29:35.103Z,19.92
2017-01-24T04:30:34.725Z,19.34
2017-01-24T04:31:35.090Z,19.63
2017-01-24T04:32:34.752Z,19.34
2017-01-24T04:33:35.402Z,20.11
2017-01-24T04:34:35.062Z,19.72
2017-01-24T04:35:35.070Z,19.72
2017-01-24T04:36:35.256Z,19.24
2017-01-24T04:37:35.072Z,19.34
2017-01-24T04:38:34.704Z,19.72
2017-01-24T04:39:35.132Z,19.72
2017-01-24T04:40:35.084Z,19.72
2017-01-24T04:41:34.772Z,19.63
2017-01-24T04:42:35.175Z,19.63
2017-01-24T04:43:34.804Z,19.63
2017-01-24T04:44:35.105Z,19.63
2017-01-24T04:45:35.248Z,19.72
2017-01-24T04:46:35.168Z,19.72
2017-01-24T04:47:35.320Z,19.64
2017-01-24T04:48:34.778Z,19.24
2017-01-24T04:49:35.181Z,19.63
2017-01-24T04:50:34.739Z,19.72
2017-01-24T04:51:35.191Z,19.63
2017-01-24T04:52:34.865Z,19.53
2017-01-24T04:53:34.851Z,19.63
2017-01-24T04:54:34.959Z,19.72
2017-01-24T04:55:34.922Z,19.63
2017-01-24T04:56:35.214Z,19.63
2017-01-24T04:57:34.871Z,19.63
2017-01-24T04:58:34.920Z,19.24
2017-01-24T04:59:34.780Z,20.01
2017-01-24T05:00:35.181Z,20.01
2017-01-24T05:01:35.276Z,20.01
2017-01-24T05:02:34.798Z,20.3
2017-01-24T05:03:35.388Z,19.34
2017-01-24T05:04:34.998Z,20.11
2017-01-24T05:05:34.814Z,20.01
2017-01-24T05:06:34.913Z,19.63
2017-01-24T05:07:35.217Z,19.34
2017-01-24T05:08:35.423Z,19.53
2017-01-24T05:09:34.990Z,20.2
2017-01-24T05:10:35.232Z,19.43
2017-01-24T05:11:35.236Z,19.63
2017-01-24T05:12:35.239Z,19.43
2017-01-24T05:13:35.336Z,19.63
2017-01-24T05:14:35.388Z,19.72
2017-01-24T05:15:35.259Z,19.63
2017-01-24T05:16:34.864Z,19.24
2017-01-24T05:17:35.267Z,19.72
2017-01-24T05:18:34.878Z,19.63
2017-01-24T05:19:35.275Z,19.72
2017-01-24T05:20:34.935Z,19.82
2017-01-24T05:21:34.940Z,19.72
2017-01-24T05:22:34.896Z,19.72
2017-01-24T05:23:34.901Z,19.53
2017-01-24T05:24:35.007Z,19.72
2017-01-24T05:25:34.909Z,19.72
2017-01-24T05:26:35.006Z,19.72
2017-01-24T05:27:35.124Z,19.63
2017-01-24T05:28:35.321Z,19.53
2017-01-24T05:29:35.373Z,19.63
2017-01-24T05:30:34.984Z,19.72
2017-01-24T05:31:34.940Z,19.63
2017-01-24T05:36:30.659Z,19.53
2017-01-24T05:37:30.861Z,20.2
2017-01-24T05:38:30.271Z,20.11
2017-01-24T05:39:30.225Z,19.72
2017-01-24T05:40:30.234Z,19.63
2017-01-24T05:41:30.233Z,19.72
2017-01-24T05:42:30.632Z,19.72
2017-01-24T05:43:30.345Z,19.82
2017-01-24T05:44:30.280Z,19.72
2017-01-24T05:45:30.254Z,19.72
2017-01-24T05:46:30.654Z,19.53
2017-01-24T05:47:30.263Z,19.82
2017-01-24T05:48:30.663Z,19.82
2017-01-24T05:49:30.669Z,19.43
2017-01-24T05:50:30.277Z,19.72
2017-01-24T05:51:30.680Z,19.82
2017-01-24T05:52:30.289Z,19.43
2017-01-24T05:53:30.738Z,19.43
2017-01-24T05:54:30.296Z,19.43
2017-01-24T05:55:30.305Z,19.53
2017-01-24T05:56:30.305Z,19.43
2017-01-24T05:57:30.313Z,19.82
2017-01-24T05:58:30.319Z,19.82
2017-01-24T05:59:31.635Z,19.53
2017-01-24T06:00:30.379Z,19.43
2017-01-24T06:01:31.227Z,19.82
2017-01-24T06:02:30.737Z,19.72
2017-01-24T06:03:30.392Z,19.63
2017-01-24T06:04:30.347Z,19.72
2017-01-24T06:05:30.746Z,19.63
2017-01-24T06:06:30.357Z,19.63
2017-01-24T06:07:30.360Z,19.72
2017-01-24T06:08:30.762Z,19.34
2017-01-24T06:09:30.815Z,19.63
2017-01-24T06:10:31.522Z,19.63
2017-01-24T06:11:30.775Z,19.63
2017-01-24T06:12:30.781Z,19.72
2017-01-24T06:13:45.270Z,19.63
2017-01-24T06:14:30.791Z,19.63
2017-01-24T06:15:30.398Z,19.72
2017-01-24T06:16:30.798Z,19.72
2017-01-24T06:17:30.802Z,19.72
2017-01-24T06:18:30.860Z,19.72
2017-01-24T06:19:30.815Z,19.72
2017-01-24T06:20:30.424Z,19.43
2017-01-24T06:21:30.578Z,19.63
2017-01-24T06:22:30.433Z,19.72
2017-01-24T06:23:30.835Z,19.72
2017-01-24T06:24:30.838Z,19.72
2017-01-24T06:25:30.893Z,19.72
2017-01-24T06:26:30.847Z,19.72
2017-01-24T06:27:30.456Z,19.82
2017-01-24T06:28:30.857Z,19.43
2017-01-24T06:29:30.466Z,19.72
2017-01-24T06:30:30.869Z,19.72
2017-01-24T06:31:30.872Z,19.63
2017-01-24T06:32:30.876Z,19.72
2017-01-24T06:33:30.885Z,19.82
2017-01-24T06:34:30.540Z,19.82
2017-01-24T06:35:30.497Z,19.43
2017-01-24T06:36:30.899Z,19.72
2017-01-24T06:37:30.901Z,19.72
2017-01-24T06:38:30.513Z,19.72
2017-01-24T06:39:30.913Z,19.82
2017-01-24T06:40:30.965Z,19.72
2017-01-24T06:41:30.921Z,19.72
2017-01-24T06:42:30.528Z,19.43
2017-01-24T06:43:30.534Z,19.43
2017-01-24T06:44:30.985Z,19.82
2017-01-24T06:45:31.892Z,19.82
2017-01-24T06:46:30.995Z,19.45
2017-01-24T06:47:30.553Z,19.53
2017-01-24T06:48:30.608Z,19.34
2017-01-24T06:49:30.564Z,19.43
2017-01-24T06:50:31.266Z,19.82
2017-01-24T06:51:30.968Z,19.72
2017-01-24T06:52:30.578Z,19.43
2017-01-24T06:53:31.033Z,19.72
2017-01-24T06:54:32.085Z,19.82
2017-01-24T06:55:31.037Z,19.82
2017-01-24T06:56:31.245Z,19.45
2017-01-24T06:57:30.604Z,19.53
2017-01-24T06:58:30.610Z,19.53
2017-01-24T06:59:30.617Z,19.43
2017-01-24T07:00:31.015Z,19.63
2017-01-24T07:01:31.118Z,19.53
2017-01-24T07:02:31.073Z,19.43
2017-01-24T07:03:30.633Z,19.82
2017-01-24T07:04:31.037Z,19.82
2017-01-24T07:05:31.791Z,19.82
2017-01-24T07:06:30.696Z,19.72
2017-01-24T07:07:30.649Z,19.63
2017-01-24T07:08:31.102Z,19.63
2017-01-24T07:09:31.056Z,19.63
2017-01-24T07:10:31.062Z,19.63
2017-01-24T07:11:30.675Z,19.43
2017-01-24T07:12:30.673Z,19.72
2017-01-24T07:13:30.678Z,19.63
2017-01-24T07:14:31.079Z,19.34
2017-01-24T07:15:31.134Z,19.63
2017-01-24T07:16:31.339Z,19.63
2017-01-24T07:17:31.149Z,19.72
2017-01-24T07:18:31.100Z,19.63
2017-01-24T07:19:30.758Z,19.72
2017-01-24T07:20:31.160Z,19.63
2017-01-24T07:21:31.114Z,19.72
2017-01-24T07:22:31.117Z,19.72
2017-01-24T07:23:30.736Z,19.72
2017-01-24T07:24:31.180Z,19.72
2017-01-24T07:25:30.787Z,19.82
2017-01-24T07:26:31.141Z,19.72
2017-01-24T07:27:31.146Z,19.72
2017-01-24T07:28:31.196Z,19.72
2017-01-24T07:29:31.152Z,19.63
2017-01-24T07:30:31.157Z,19.82
2017-01-24T07:31:30.770Z,19.63
2017-01-24T07:32:30.770Z,19.63
2017-01-24T07:33:31.171Z,19.53
2017-01-24T07:34:31.176Z,19.72
2017-01-24T07:35:31.181Z,19.63
2017-01-24T07:36:30.840Z,19.63
2017-01-24T07:37:31.219Z,19.63
2017-01-24T07:38:31.203Z,19.53
2017-01-24T07:39:31.199Z,19.63
2017-01-24T07:40:31.910Z,19.63
2017-01-24T07:41:30.811Z,19.63
2017-01-24T07:42:31.312Z,19.43
2017-01-24T07:43:31.221Z,20.01
2017-01-24T07:44:30.878Z,19.82
2017-01-24T07:45:31.278Z,19.63
2017-01-24T07:46:31.285Z,19.63
2017-01-24T07:47:31.238Z,19.63
2017-01-24T07:48:31.243Z,19.53
2017-01-24T07:49:32.348Z,19.72
2017-01-24T07:50:31.302Z,19.82
2017-01-24T07:51:31.456Z,19.72
2017-01-24T07:52:31.261Z,19.82
2017-01-24T07:53:30.919Z,19.43
2017-01-24T07:54:31.570Z,19.43
2017-01-24T07:55:31.276Z,19.53
2017-01-24T07:56:30.885Z,19.53
2017-01-24T07:57:31.285Z,19.53
2017-01-24T07:58:31.289Z,19.92
2017-01-24T07:59:30.899Z,19.63
2017-01-24T08:00:31.354Z,19.93
2017-01-24T08:01:30.909Z,19.73
2017-01-24T08:02:31.164Z,19.54
2017-01-24T08:03:31.314Z,19.64
2017-01-24T08:04:30.923Z,19.63
2017-01-24T08:05:31.325Z,19.54
2017-01-24T08:06:31.380Z,19.64
2017-01-24T08:07:31.385Z,19.64
2017-01-24T08:08:31.340Z,19.15
2017-01-24T08:09:31.345Z,18.96
2017-01-24T08:10:31.352Z,18.96
2017-01-24T08:11:31.242Z,18.96
2017-01-24T08:12:30.965Z,18.96
2017-01-24T08:13:31.416Z,18.77
2017-01-24T08:14:31.373Z,18.96
2017-01-24T08:15:32.479Z,18.96
2017-01-24T08:16:31.379Z,18.87
2017-01-24T08:17:30.985Z,19.45
2017-01-24T08:18:31.388Z,19.54
2017-01-24T08:19:31.047Z,19.15
2017-01-24T08:20:31.002Z,19.35
2017-01-24T08:21:31.010Z,18.96
2017-01-24T08:22:31.409Z,18.96
2017-01-24T08:23:31.413Z,18.77
2017-01-24T08:24:32.446Z,19.15
2017-01-24T08:25:31.427Z,19.06
2017-01-24T08:26:32.087Z,18.96
2017-01-24T08:27:31.037Z,18.96
2017-01-24T08:28:31.465Z,18.96
2017-01-24T08:29:31.445Z,19.06
2017-01-24T08:30:31.448Z,18.87
2017-01-24T08:31:31.056Z,19.64
2017-01-24T08:32:31.061Z,19.35
2017-01-24T08:33:31.510Z,19.64
2017-01-24T08:34:31.123Z,19.34
2017-01-24T08:35:32.425Z,19.54
2017-01-24T08:36:31.085Z,19.54
2017-01-24T08:37:31.531Z,19.83
2017-01-24T08:38:31.144Z,19.73
2017-01-24T08:39:31.492Z,19.72
2017-01-24T08:40:31.150Z,19.54
2017-01-24T08:41:31.159Z,19.73
2017-01-24T08:42:31.508Z,19.93
2017-01-24T08:43:31.120Z,19.54
2017-01-24T08:44:31.122Z,19.54
2017-01-24T08:45:31.575Z,19.64
2017-01-24T08:46:32.329Z,19.35
2017-01-24T08:47:31.187Z,19.82
2017-01-24T08:48:31.537Z,19.83
2017-01-24T08:49:31.542Z,19.63
2017-01-24T08:50:31.553Z,19.54
2017-01-24T08:51:31.601Z,19.72
2017-01-24T08:52:31.163Z,19.72
2017-01-24T08:53:31.169Z,19.72
2017-01-24T08:54:31.171Z,19.72
2017-01-24T08:55:31.621Z,19.53
2017-01-24T08:56:31.679Z,19.63
2017-01-24T08:57:31.437Z,19.63
2017-01-24T08:58:31.241Z,20.11
2017-01-24T08:59:31.196Z,20.2
2017-01-24T09:00:31.200Z,19.92
2017-01-24T09:01:31.602Z,19.92
2017-01-24T09:02:31.261Z,19.34
2017-01-24T09:03:31.267Z,19.63
2017-01-24T09:04:31.271Z,20.11
2017-01-24T09:05:31.525Z,20.01
2017-01-24T09:06:31.625Z,19.82
2017-01-24T09:07:31.629Z,20.11
2017-01-24T09:08:31.292Z,19.63
2017-01-24T09:09:31.248Z,19.63
2017-01-24T09:10:31.250Z,19.63
2017-01-24T09:11:31.652Z,19.72
2017-01-24T09:12:31.655Z,19.82
2017-01-24T09:13:31.658Z,19.92
2017-01-24T09:14:31.664Z,19.82
2017-01-24T09:15:31.671Z,20.01
2017-01-24T09:16:31.674Z,19.92
2017-01-24T09:17:31.679Z,19.63
2017-01-24T09:18:31.683Z,19.92
2017-01-24T09:19:31.692Z,19.82
2017-01-24T09:20:31.696Z,19.63
2017-01-24T09:21:32.549Z,19.82
2017-01-24T09:22:31.753Z,19.72
2017-01-24T09:23:31.313Z,19.92
2017-01-24T09:24:31.319Z,19.92
2017-01-24T09:25:32.017Z,19.72
2017-01-24T09:26:31.328Z,19.82
2017-01-24T09:27:31.730Z,19.92
2017-01-24T09:28:31.387Z,19.63
2017-01-24T09:29:31.816Z,19.82
2017-01-24T09:30:31.353Z,19.63
2017-01-24T09:31:31.352Z,19.82
2017-01-24T09:32:32.253Z,19.92
2017-01-24T09:33:31.461Z,19.82
2017-01-24T09:34:31.766Z,19.72
2017-01-24T09:35:31.372Z,19.63
2017-01-24T09:36:31.382Z,19.82
2017-01-24T09:37:31.826Z,19.92
2017-01-24T09:38:31.833Z,19.92
2017-01-24T09:39:31.789Z,19.82
2017-01-24T09:40:31.791Z,19.92
2017-01-24T09:41:31.401Z,19.72
2017-01-24T09:42:31.821Z,19.63
2017-01-24T09:43:31.411Z,19.72
2017-01-24T09:44:31.814Z,19.92
2017-01-24T09:45:31.477Z,19.82
2017-01-24T09:46:31.477Z,19.72
2017-01-24T09:47:31.829Z,20.01
2017-01-24T09:48:31.832Z,19.72
2017-01-24T09:49:31.848Z,19.82
2017-01-24T09:50:31.445Z,19.82
2017-01-24T09:51:31.500Z,19.82
2017-01-24T09:52:32.251Z,19.72
2017-01-24T09:53:31.883Z,19.92
2017-01-24T09:54:31.464Z,20.3
2017-01-24T09:55:31.474Z,19.92
2017-01-24T09:56:31.875Z,19.92
2017-01-24T09:57:31.880Z,19.92
2017-01-24T09:58:31.933Z,20.3
2017-01-24T09:59:31.497Z,20.11
2017-01-24T10:00:31.494Z,20.01
2017-01-24T10:01:31.947Z,20.59
2017-01-24T10:02:31.609Z,20.5
2017-01-24T10:03:31.963Z,20.2
2017-01-24T10:04:31.566Z,20.3
2017-01-24T10:05:31.518Z,20.4
2017-01-24T10:06:31.920Z,20.4
2017-01-24T10:07:31.563Z,20.5
2017-01-24T10:08:31.533Z,20.4
2017-01-24T10:09:31.590Z,20.3
2017-01-24T10:10:31.549Z,20.3
2017-01-24T10:11:31.551Z,20.3
2017-01-24T10:12:31.610Z,20.2
2017-01-24T10:13:31.953Z,20.4
2017-01-24T10:14:32.010Z,20.3
2017-01-24T10:15:31.570Z,20.2
2017-01-24T10:16:31.625Z,20.3
2017-01-24T10:17:31.974Z,20.2
2017-01-24T10:18:31.981Z,20.3
2017-01-24T10:19:31.590Z,20.68
2017-01-24T10:20:31.995Z,20.4
2017-01-24T10:21:32.048Z,20.59
2017-01-24T10:22:32.000Z,20.68
2017-01-24T10:23:32.056Z,20.97
2017-01-24T10:24:32.069Z,20.78
2017-01-24T10:25:32.067Z,20.97
2017-01-24T10:26:31.674Z,20.78
2017-01-24T10:27:31.630Z,20.97
2017-01-24T10:28:31.664Z,20.78
2017-01-24T10:29:31.692Z,21.55
2017-01-24T10:30:32.038Z,21.45
2017-01-24T10:31:32.079Z,21.55
2017-01-24T10:32:32.104Z,21.55
2017-01-24T10:33:32.058Z,21.65
2017-01-24T10:34:32.063Z,21.84
2017-01-24T10:35:31.721Z,21.75
2017-01-24T10:36:32.882Z,21.75
2017-01-24T10:37:32.080Z,21.75
2017-01-24T10:38:32.631Z,22.03
2017-01-24T10:39:32.142Z,21.65
2017-01-24T10:40:32.142Z,22.03
2017-01-24T10:41:31.749Z,22.03
2017-01-24T10:42:32.151Z,22.13
2017-01-24T10:43:32.107Z,21.75
2017-01-24T10:44:32.164Z,21.94
2017-01-24T10:45:32.216Z,21.84
2017-01-24T10:46:31.781Z,22.22
2017-01-24T10:47:32.831Z,21.85
2017-01-24T10:48:31.791Z,21.85
2017-01-24T10:49:32.437Z,20.7
2017-01-24T10:50:32.192Z,20.23
2017-01-24T10:51:32.196Z,19.76
2017-01-24T10:52:32.056Z,19.29
2017-01-24T10:53:31.759Z,18.82
2017-01-24T10:54:31.765Z,18.34
2017-01-24T10:55:32.216Z,17.96
2017-01-24T10:56:31.776Z,17.97
2017-01-24T10:57:32.181Z,17.68
2017-01-24T10:58:32.639Z,17.68
2017-01-24T10:59:32.187Z,17.68
2017-01-24T11:00:32.191Z,17.1
2017-01-24T11:01:32.195Z,16.91
2017-01-24T11:02:32.204Z,16.91
2017-01-24T11:03:32.210Z,17.21
2017-01-24T11:04:32.270Z,17.31
2017-01-24T11:05:32.218Z,17.21
2017-01-24T11:06:31.878Z,17.21
2017-01-24T11:07:32.285Z,17.31
2017-01-24T11:08:31.942Z,16.72
2017-01-24T11:09:32.743Z,16.54
2017-01-24T11:10:32.244Z,16.53
2017-01-24T11:11:32.253Z,16.64
2017-01-24T11:12:31.913Z,16.64
2017-01-24T11:13:31.920Z,16.74
2017-01-24T11:14:31.874Z,16.64
2017-01-24T11:15:32.277Z,16.74
2017-01-24T11:16:31.886Z,16.74
2017-01-24T11:17:31.946Z,16.83
2017-01-24T11:18:32.298Z,16.84
2017-01-24T11:19:31.956Z,16.74
2017-01-24T11:20:32.363Z,16.84
2017-01-24T11:21:31.966Z,16.84
2017-01-24T11:22:32.320Z,17.13
2017-01-24T11:23:32.375Z,17.22
2017-01-24T11:24:32.336Z,16.64
2017-01-24T11:25:32.337Z,16.55
2017-01-24T11:26:31.951Z,16.64
2017-01-24T11:27:32.352Z,16.64
2017-01-24T11:28:32.011Z,17.03
2017-01-24T11:29:32.362Z,17.13
2017-01-24T11:30:32.024Z,17.32
2017-01-24T11:31:32.476Z,17.22
2017-01-24T11:32:32.038Z,17.03
2017-01-24T11:33:32.390Z,17.22
2017-01-24T11:34:32.511Z,17.13
2017-01-24T11:35:32.059Z,17.22
2017-01-24T11:36:32.461Z,16.94
2017-01-24T11:37:32.072Z,16.64
2017-01-24T11:38:32.471Z,16.74
2017-01-24T11:39:32.433Z,16.66
2017-01-24T11:40:32.433Z,16.75
2017-01-24T11:41:32.491Z,16.56
2017-01-24T11:42:32.450Z,16.66
2017-01-24T11:43:32.111Z,17.22
2017-01-24T11:44:32.068Z,17.04
2017-01-24T11:45:32.524Z,17.33
2017-01-24T11:46:32.130Z,17.14
2017-01-24T11:47:32.086Z,17.32
2017-01-24T11:48:32.489Z,17.33
2017-01-24T11:49:32.100Z,17.42
2017-01-24T11:50:32.503Z,17.04
2017-01-24T11:51:32.524Z,17.52
2017-01-24T11:52:32.121Z,17.33
2017-01-24T11:53:32.178Z,17.14
2017-01-24T11:54:32.530Z,17.33
2017-01-24T11:55:33.261Z,17.14
2017-01-24T11:56:32.544Z,17.24
2017-01-24T11:57:32.203Z,17.24
2017-01-24T11:58:32.556Z,17.24
2017-01-24T11:59:32.219Z,17.14
2017-01-24T12:00:32.623Z,17.03
2017-01-24T12:01:32.590Z,17.24
2017-01-24T12:02:32.188Z,17.04
2017-01-24T12:03:32.195Z,17.14
2017-01-24T12:04:32.652Z,17.04
2017-01-24T12:05:32.258Z,16.75
2017-01-24T12:06:33.462Z,16.66
2017-01-24T12:07:32.621Z,16.66
2017-01-24T12:08:32.281Z,16.85
2017-01-24T12:09:32.685Z,16.85
2017-01-24T12:10:32.247Z,16.94
2017-01-24T12:11:32.255Z,16.94
2017-01-24T12:12:32.309Z,16.85
2017-01-24T12:13:32.665Z,16.56
2017-01-24T12:14:32.669Z,16.46
2017-01-24T12:15:32.286Z,16.84
2017-01-24T12:16:32.782Z,16.64
2017-01-24T12:17:33.502Z,16.84
2017-01-24T12:18:32.302Z,16.74
2017-01-24T12:19:32.358Z,16.94
2017-01-24T12:20:32.712Z,16.56
2017-01-24T12:21:32.719Z,16.66
2017-01-24T12:22:32.331Z,16.56
2017-01-24T12:23:32.784Z,16.66
2017-01-24T12:24:32.742Z,16.66
2017-01-24T12:25:32.748Z,16.75
2017-01-24T12:26:32.411Z,16.75
2017-01-24T12:27:32.811Z,16.66
2017-01-24T12:28:33.276Z,16.56
2017-01-24T12:29:32.830Z,16.36
2017-01-24T12:30:32.784Z,16.56
2017-01-24T12:31:32.399Z,16.46
2017-01-24T12:32:32.799Z,16.27
2017-01-24T12:33:32.460Z,16.17
2017-01-24T12:34:32.812Z,16.36
2017-01-24T12:35:32.818Z,15.88
2017-01-24T12:36:32.839Z,15.98
2017-01-24T12:37:33.183Z,15.78
2017-01-24T12:38:32.842Z,16.17
2017-01-24T12:39:32.450Z,15.88
2017-01-24T12:40:32.915Z,16.46
2017-01-24T12:41:32.468Z,16.46
2017-01-24T12:42:32.870Z,16.46
2017-01-24T12:43:32.879Z,15.88
2017-01-24T12:44:32.935Z,16.27
2017-01-24T12:45:32.890Z,15.88
2017-01-24T12:46:32.900Z,15.88
2017-01-24T12:47:32.513Z,16.07
2017-01-24T12:48:33.473Z,15.88
2017-01-24T12:49:32.526Z,16.56
2017-01-24T12:50:32.682Z,15.88
2017-01-24T12:51:32.936Z,15.78
2017-01-24T12:52:32.546Z,15.88
2017-01-24T12:53:32.555Z,15.88
2017-01-24T12:54:32.959Z,15.98
2017-01-24T12:55:32.572Z,15.98
2017-01-24T12:56:32.975Z,16.17
2017-01-24T12:57:32.981Z,16.17